Time;durP1;ratioP1;P1;durP2;ratioP2;P2;SDS_P1;SDS_P2;PMS_P1;PMS_P2;Temp;Humidity;BMP_temperature;BMP_pressure;BME280_temperature;BME280_humidity;BME280_pressure;Samples;Min_cycle;Max_cycle;Signal;HPM_P1;HPM_P2
2021/12/21 00:00:56;;;;;;;77.32;12.73;;;;;;;;;;5094678;28;20220;-64
2021/12/21 00:03:23;;;;;;;68.85;11.13;;;;;;;;;;5094496;28;20295;-65
2021/12/21 00:05:50;;;;;;;74.07;11.55;;;;;;;;;;5094249;28;20752;-64
2021/12/21 00:08:18;;;;;;;68.85;10.82;;;;;;;;;;5093980;28;20204;-64
2021/12/21 00:10:47;;;;;;;69.10;11.82;;;;;;;;;;5094208;28;20229;-64
2021/12/21 00:13:25;;;;;;;75.00;13.85;;;;;;;;;;5092628;28;20200;-64
2021/12/21 00:16:02;;;;;;;69.13;11.45;;;;;;;;;;5094429;28;20220;-64
2021/12/21 00:18:38;;;;;;;70.55;12.02;;;;;;;;;;5094070;28;20208;-64
2021/12/21 00:21:12;;;;;;;77.45;13.88;;;;;;;;;;5093983;28;20760;-65
2021/12/21 00:23:42;;;;;;;80.65;14.23;;;;;;;;;;5094195;28;20583;-65
2021/12/21 00:26:10;;;;;;;69.63;11.88;;;;;;;;;;5094061;28;20226;-65
2021/12/21 00:28:44;;;;;;;72.47;12.27;;;;;;;;;;5094058;28;20337;-65
2021/12/21 00:31:11;;;;;;;72.45;12.43;;;;;;;;;;5093923;28;20228;-65
2021/12/21 00:33:41;;;;;;;73.57;13.00;;;;;;;;;;5094276;28;20317;-64
2021/12/21 00:36:09;;;;;;;75.72;13.63;;;;;;;;;;5093906;28;20578;-64
2021/12/21 00:38:36;;;;;;;73.63;11.75;;;;;;;;;;5093480;28;20684;-63
2021/12/21 00:41:03;;;;;;;74.65;11.57;;;;;;;;;;5094126;28;20224;-65
2021/12/21 00:43:30;;;;;;;70.50;10.93;;;;;;;;;;5080523;28;20201;-64
2021/12/21 00:45:58;;;;;;;77.97;13.20;;;;;;;;;;5073176;28;20201;-65
2021/12/21 00:48:28;;;;;;;73.70;12.63;;;;;;;;;;5073288;28;20300;-64
2021/12/21 00:50:57;;;;;;;73.78;12.73;;;;;;;;;;5073234;28;20221;-66
2021/12/21 00:53:24;;;;;;;72.55;11.80;;;;;;;;;;5073334;28;20201;-65
2021/12/21 00:55:52;;;;;;;69.82;11.95;;;;;;;;;;5073173;28;20256;-63
2021/12/21 00:58:19;;;;;;;70.65;10.68;;;;;;;;;;5072733;28;20205;-65
2021/12/21 01:00:46;;;;;;;71.63;11.95;;;;;;;;;;5073155;28;20231;-65
2021/12/21 01:03:16;;;;;;;72.97;11.85;;;;;;;;;;5073209;28;20204;-65
2021/12/21 01:05:49;;;;;;;68.63;10.25;;;;;;;;;;5072959;28;20201;-64
2021/12/21 01:08:21;;;;;;;70.80;13.10;;;;;;;;;;5073070;28;20259;-64
2021/12/21 01:11:01;;;;;;;74.05;11.57;;;;;;;;;;5072711;28;20267;-64
2021/12/21 01:13:33;;;;;;;68.80;10.40;;;;;;;;;;5072679;28;20684;-65
2021/12/21 01:16:15;;;;;;;72.25;11.93;;;;;;;;;;5072535;28;20324;-64
2021/12/21 01:18:56;;;;;;;66.55;10.38;;;;;;;;;;5072508;28;20756;-65
2021/12/21 01:21:28;;;;;;;80.65;12.43;;;;;;;;;;5072618;28;20650;-65
2021/12/21 01:26:52;;;;;;;70.10;12.30;;;;;;;;;;5051448;28;20296;-65
2021/12/21 01:29:27;;;;;;;71.22;12.18;;;;;;;;;;5072462;28;20239;-64
2021/12/21 01:32:01;;;;;;;72.88;11.50;;;;;;;;;;5072827;28;20226;-65
2021/12/21 01:34:40;;;;;;;74.72;11.57;;;;;;;;;;5072585;28;20589;-65
2021/12/21 01:37:16;;;;;;;69.85;11.52;;;;;;;;;;5072500;28;20262;-67
2021/12/21 01:39:58;;;;;;;74.22;11.38;;;;;;;;;;5072881;28;20228;-66
2021/12/21 01:42:37;;;;;;;69.18;10.00;;;;;;;;;;5072653;28;20283;-66
2021/12/21 01:50:34;;;;;;;67.80;10.80;;;;;;;;;;5072086;28;20343;-65
2021/12/21 01:53:02;;;;;;;70.10;12.30;;;;;;;;;;5072338;28;20215;-65
2021/12/21 01:55:30;;;;;;;70.88;10.38;;;;;;;;;;5072144;28;20315;-64
2021/12/21 01:57:57;;;;;;;68.10;9.65;;;;;;;;;;5071916;28;20571;-65
2021/12/21 02:00:24;;;;;;;68.40;9.45;;;;;;;;;;5072007;28;20224;-64
2021/12/21 02:02:52;;;;;;;68.03;11.55;;;;;;;;;;5071985;28;20299;-64
2021/12/21 02:05:19;;;;;;;69.18;11.20;;;;;;;;;;5072328;28;20288;-64
2021/12/21 02:07:46;;;;;;;69.03;10.70;;;;;;;;;;5071899;28;20736;-65
2021/12/21 02:10:13;;;;;;;69.03;10.95;;;;;;;;;;5071955;28;20225;-65
2021/12/21 02:12:41;;;;;;;79.55;10.23;;;;;;;;;;5069981;28;20204;-64
2021/12/21 02:15:09;;;;;;;72.32;9.35;;;;;;;;;;5071927;28;20315;-64
2021/12/21 02:20:41;;;;;;;67.43;10.25;;;;;;;;;;5071800;28;20216;-65
2021/12/21 02:23:12;;;;;;;74.25;9.70;;;;;;;;;;5072103;28;20292;-64
2021/12/21 02:26:01;;;;;;;66.50;9.48;;;;;;;;;;5071624;28;20236;-64
2021/12/21 02:29:09;;;;;;;70.32;12.38;;;;;;;;;;5071364;28;20205;-65
2021/12/21 02:31:35;;;;;;;70.05;10.02;;;;;;;;;;5071479;28;20648;-64
2021/12/21 02:34:03;;;;;;;66.25;10.00;;;;;;;;;;5071619;28;20201;-65
2021/12/21 02:36:31;;;;;;;72.10;10.88;;;;;;;;;;5071858;28;20227;-65
2021/12/21 02:38:59;;;;;;;70.05;10.18;;;;;;;;;;5071476;28;20208;-64
2021/12/21 02:41:26;;;;;;;69.68;10.70;;;;;;;;;;5071584;28;20623;-64
2021/12/21 02:43:55;;;;;;;70.55;10.52;;;;;;;;;;5071990;28;20703;-65
2021/12/21 02:46:23;;;;;;;75.13;10.80;;;;;;;;;;5071755;28;20204;-65
2021/12/21 02:48:50;;;;;;;71.03;11.85;;;;;;;;;;5071460;28;20209;-64
2021/12/21 02:51:17;;;;;;;66.45;9.90;;;;;;;;;;5071547;28;20614;-65
2021/12/21 02:53:45;;;;;;;74.00;10.60;;;;;;;;;;5071536;28;20201;-64
2021/12/21 02:56:13;;;;;;;70.00;10.43;;;;;;;;;;5071314;28;20217;-65
2021/12/21 02:58:40;;;;;;;73.07;10.25;;;;;;;;;;5071383;28;20283;-65
2021/12/21 03:01:08;;;;;;;73.68;10.10;;;;;;;;;;5071516;28;20229;-65
2021/12/21 03:03:35;;;;;;;70.30;9.90;;;;;;;;;;5071458;28;20301;-64
2021/12/21 03:06:06;;;;;;;70.95;11.35;;;;;;;;;;5071216;28;20205;-64
2021/12/21 03:08:39;;;;;;;63.45;8.35;;;;;;;;;;5071158;28;20216;-64
2021/12/21 03:11:14;;;;;;;72.60;9.30;;;;;;;;;;5071297;28;20256;-65
2021/12/21 03:16:26;;;;;;;69.55;9.65;;;;;;;;;;5071234;28;20224;-65
2021/12/21 03:18:56;;;;;;;67.85;9.65;;;;;;;;;;5071109;28;20212;-64
2021/12/21 03:21:23;;;;;;;66.28;11.45;;;;;;;;;;5071159;28;20311;-64
2021/12/21 03:23:50;;;;;;;72.30;13.20;;;;;;;;;;5072347;28;20223;-64
2021/12/21 03:26:18;;;;;;;71.43;13.55;;;;;;;;;;5075033;28;20201;-63
2021/12/21 03:28:46;;;;;;;73.70;12.57;;;;;;;;;;5074850;28;20209;-64
2021/12/21 03:31:13;;;;;;;69.55;11.77;;;;;;;;;;5074887;28;20312;-63
2021/12/21 03:33:45;;;;;;;67.43;9.73;;;;;;;;;;5074771;28;20296;-65
2021/12/21 03:36:12;;;;;;;70.90;10.73;;;;;;;;;;5074820;28;20231;-65
2021/12/21 03:38:43;;;;;;;71.25;10.27;;;;;;;;;;5074674;28;20205;-64
2021/12/21 03:41:14;;;;;;;70.03;9.38;;;;;;;;;;5074649;28;20229;-65
2021/12/21 03:43:43;;;;;;;67.97;10.27;;;;;;;;;;5074832;28;20580;-64
2021/12/21 03:46:12;;;;;;;65.50;9.40;;;;;;;;;;5074436;28;20296;-64
2021/12/21 03:48:42;;;;;;;68.47;10.50;;;;;;;;;;5074260;28;20209;-64
2021/12/21 03:51:09;;;;;;;72.05;11.70;;;;;;;;;;5074432;28;20337;-64
2021/12/21 03:53:36;;;;;;;66.70;9.70;;;;;;;;;;5074715;28;20209;-64
2021/12/21 03:56:18;;;;;;;71.20;10.35;;;;;;;;;;5074434;28;20312;-64
2021/12/21 03:58:46;;;;;;;83.47;11.63;;;;;;;;;;5074105;28;20205;-63
2021/12/21 04:01:14;;;;;;;67.10;9.50;;;;;;;;;;5074506;28;20316;-64
2021/12/21 04:03:41;;;;;;;70.40;10.10;;;;;;;;;;5074352;28;20262;-64
2021/12/21 04:06:08;;;;;;;74.07;11.50;;;;;;;;;;5074372;28;20232;-64
2021/12/21 04:08:35;;;;;;;69.70;9.57;;;;;;;;;;5073981;28;20292;-64
2021/12/21 04:11:02;;;;;;;75.97;11.07;;;;;;;;;;5073809;28;20669;-64
2021/12/21 04:13:30;;;;;;;77.95;10.98;;;;;;;;;;5074071;28;20209;-64
2021/12/21 04:16:01;;;;;;;69.80;10.88;;;;;;;;;;5074113;28;20274;-64
2021/12/21 04:18:29;;;;;;;67.38;9.35;;;;;;;;;;5073965;28;20317;-64
2021/12/21 04:20:56;;;;;;;69.25;9.77;;;;;;;;;;5074016;28;20567;-64
2021/12/21 04:23:23;;;;;;;66.97;9.13;;;;;;;;;;5073914;28;20582;-65
2021/12/21 04:25:50;;;;;;;64.90;9.27;;;;;;;;;;5073897;28;20201;-63
2021/12/21 04:28:17;;;;;;;66.20;8.65;;;;;;;;;;5073790;28;20205;-64
2021/12/21 04:30:44;;;;;;;71.15;10.02;;;;;;;;;;5073944;28;20320;-63
2021/12/21 04:33:13;;;;;;;68.25;9.40;;;;;;;;;;5073855;28;20639;-65
2021/12/21 04:35:40;;;;;;;77.15;9.65;;;;;;;;;;5073189;28;20229;-64
2021/12/21 04:38:20;;;;;;;69.30;10.68;;;;;;;;;;5073459;28;20208;-65
2021/12/21 04:40:49;;;;;;;66.20;8.90;;;;;;;;;;5073798;28;20228;-64
2021/12/21 04:43:17;;;;;;;72.68;10.63;;;;;;;;;;5073720;28;20599;-64
2021/12/21 04:45:44;;;;;;;70.85;11.93;;;;;;;;;;5073546;28;20284;-65
2021/12/21 04:48:12;;;;;;;67.63;9.30;;;;;;;;;;5073296;28;20585;-63
2021/12/21 04:50:40;;;;;;;70.07;8.95;;;;;;;;;;5073365;28;20221;-64
2021/12/21 04:53:07;;;;;;;66.15;8.32;;;;;;;;;;5073563;28;20205;-62
2021/12/21 04:55:34;;;;;;;66.93;9.15;;;;;;;;;;5073516;28;20561;-64
2021/12/21 04:58:02;;;;;;;71.07;9.43;;;;;;;;;;5073168;28;20733;-64
2021/12/21 05:00:29;;;;;;;66.65;7.85;;;;;;;;;;5073127;28;20221;-63
2021/12/21 05:02:56;;;;;;;65.05;8.68;;;;;;;;;;5073832;28;20695;-64
2021/12/21 05:05:25;;;;;;;73.97;10.63;;;;;;;;;;5073867;28;20204;-64
2021/12/21 05:08:04;;;;;;;68.30;9.85;;;;;;;;;;5073840;28;20217;-64
2021/12/21 05:10:32;;;;;;;66.55;10.05;;;;;;;;;;5073766;28;20232;-64
2021/12/21 05:12:59;;;;;;;77.43;10.10;;;;;;;;;;5074011;28;20254;-64
2021/12/21 05:15:26;;;;;;;67.47;8.95;;;;;;;;;;5073575;28;20213;-64
2021/12/21 05:17:53;;;;;;;67.05;8.77;;;;;;;;;;5073471;28;20665;-65
2021/12/21 05:20:20;;;;;;;73.97;9.00;;;;;;;;;;5072962;28;20221;-65
2021/12/21 05:22:49;;;;;;;74.68;10.93;;;;;;;;;;5073345;28;20209;-65
2021/12/21 05:25:17;;;;;;;67.20;10.43;;;;;;;;;;5072489;28;20681;-65
2021/12/21 05:27:45;;;;;;;67.65;8.90;;;;;;;;;;5072528;28;20228;-64
2021/12/21 05:30:12;;;;;;;78.13;9.90;;;;;;;;;;5072522;28;20231;-64
2021/12/21 05:32:40;;;;;;;66.63;8.95;;;;;;;;;;5072496;28;20227;-65
2021/12/21 05:35:07;;;;;;;65.00;9.35;;;;;;;;;;5072466;28;20212;-64
2021/12/21 05:37:36;;;;;;;70.05;8.73;;;;;;;;;;5072309;28;20647;-64
2021/12/21 05:40:11;;;;;;;70.32;9.20;;;;;;;;;;5072496;28;20228;-64
2021/12/21 05:42:38;;;;;;;68.82;10.75;;;;;;;;;;5072491;28;20246;-65
2021/12/21 05:45:06;;;;;;;71.13;9.20;;;;;;;;;;5072221;28;20215;-65
2021/12/21 05:47:34;;;;;;;67.70;9.13;;;;;;;;;;5071433;28;20201;-65
2021/12/21 05:50:01;;;;;;;67.97;8.43;;;;;;;;;;5072381;28;20730;-64
2021/12/21 05:52:28;;;;;;;66.45;9.07;;;;;;;;;;5072347;28;20211;-65
2021/12/21 05:54:55;;;;;;;68.55;9.27;;;;;;;;;;5072207;28;20562;-64
2021/12/21 05:57:23;;;;;;;69.45;9.95;;;;;;;;;;5071723;28;20223;-65
2021/12/21 05:59:51;;;;;;;72.20;11.52;;;;;;;;;;5072299;28;20224;-65
2021/12/21 06:02:18;;;;;;;74.35;9.80;;;;;;;;;;5072368;28;20208;-65
2021/12/21 06:04:45;;;;;;;68.68;10.15;;;;;;;;;;5072680;28;20205;-65
2021/12/21 06:07:12;;;;;;;65.82;8.82;;;;;;;;;;5071913;28;20200;-65
2021/12/21 06:09:41;;;;;;;66.15;8.68;;;;;;;;;;5072121;28;20252;-64
2021/12/21 06:12:14;;;;;;;65.47;8.50;;;;;;;;;;5072001;28;20274;-65
2021/12/21 06:15:12;;;;;;;66.95;8.65;;;;;;;;;;5071930;28;20205;-64
2021/12/21 06:23:34;;;;;;;68.65;9.13;;;;;;;;;;5072338;28;20257;-65
2021/12/21 06:26:03;;;;;;;72.57;10.25;;;;;;;;;;5071850;28;20209;-65
2021/12/21 06:28:31;;;;;;;70.10;9.23;;;;;;;;;;5071490;28;20642;-64
2021/12/21 06:30:59;;;;;;;67.28;10.30;;;;;;;;;;5071608;28;20311;-64
2021/12/21 06:33:27;;;;;;;74.18;12.00;;;;;;;;;;5071856;28;20353;-65
2021/12/21 06:35:54;;;;;;;69.85;11.80;;;;;;;;;;5071767;28;20231;-64
2021/12/21 06:38:21;;;;;;;70.13;10.75;;;;;;;;;;5071713;28;20201;-65
2021/12/21 06:40:49;;;;;;;76.15;11.05;;;;;;;;;;5071842;28;20239;-64
2021/12/21 06:43:17;;;;;;;73.78;10.90;;;;;;;;;;5071555;28;20286;-62
2021/12/21 06:45:50;;;;;;;66.32;9.25;;;;;;;;;;5071619;28;20673;-64
2021/12/21 06:53:50;;;;;;;68.45;9.20;;;;;;;;;;5071226;28;20672;-63
2021/12/21 06:56:18;;;;;;;71.57;9.32;;;;;;;;;;5071478;28;20792;-65
2021/12/21 06:58:45;;;;;;;76.35;11.20;;;;;;;;;;5073842;28;20740;-64
2021/12/21 07:01:14;;;;;;;69.35;9.90;;;;;;;;;;5075650;28;20708;-63
2021/12/21 07:03:43;;;;;;;65.80;9.10;;;;;;;;;;5075506;28;20208;-65
2021/12/21 07:06:11;;;;;;;66.55;9.23;;;;;;;;;;5074985;28;20207;-63
2021/12/21 07:08:46;;;;;;;80.50;12.63;;;;;;;;;;5075120;28;20244;-64
2021/12/21 07:11:19;;;;;;;70.22;9.85;;;;;;;;;;5075405;28;20604;-64
2021/12/21 07:19:18;;;;;;;69.10;11.38;;;;;;;;;;5074871;28;20677;-65
2021/12/21 07:21:45;;;;;;;71.35;11.15;;;;;;;;;;5075225;28;20204;-64
2021/12/21 07:24:12;;;;;;;72.25;10.55;;;;;;;;;;5075047;28;20216;-65
2021/12/21 07:26:39;;;;;;;65.32;9.68;;;;;;;;;;5074888;28;20575;-64
2021/12/21 07:29:06;;;;;;;69.45;9.13;;;;;;;;;;5074514;28;20299;-65
2021/12/21 07:31:33;;;;;;;70.10;11.00;;;;;;;;;;5074802;28;20780;-64
2021/12/21 07:34:00;;;;;;;70.13;12.10;;;;;;;;;;5075045;28;20200;-65
2021/12/21 07:36:31;;;;;;;69.63;12.27;;;;;;;;;;5074888;28;20315;-64
2021/12/21 07:38:59;;;;;;;81.45;12.00;;;;;;;;;;5074087;28;20209;-64
2021/12/21 07:41:26;;;;;;;72.28;13.20;;;;;;;;;;5074752;28;20225;-65
2021/12/21 07:43:53;;;;;;;72.97;12.65;;;;;;;;;;5074322;28;20205;-65
2021/12/21 07:46:21;;;;;;;81.57;14.02;;;;;;;;;;5074642;28;20482;-64
2021/12/21 07:48:48;;;;;;;74.93;11.63;;;;;;;;;;5073711;28;20209;-64
2021/12/21 07:51:16;;;;;;;71.72;12.25;;;;;;;;;;5073888;28;20229;-64
2021/12/21 07:53:44;;;;;;;68.97;10.90;;;;;;;;;;5074366;28;20292;-64
2021/12/21 07:56:12;;;;;;;75.22;12.70;;;;;;;;;;5074184;28;20296;-64
2021/12/21 07:58:39;;;;;;;71.55;13.13;;;;;;;;;;5074408;28;20204;-65
2021/12/21 08:01:07;;;;;;;73.65;12.38;;;;;;;;;;5074651;28;20228;-64
2021/12/21 08:03:35;;;;;;;71.20;12.23;;;;;;;;;;5074312;28;20300;-64
2021/12/21 08:06:02;;;;;;;72.45;12.32;;;;;;;;;;5074296;28;20208;-64
2021/12/21 08:08:31;;;;;;;76.05;12.35;;;;;;;;;;5073962;28;20224;-64
2021/12/21 08:11:16;;;;;;;78.20;13.35;;;;;;;;;;5073233;28;20236;-64
2021/12/21 08:13:44;;;;;;;73.07;13.13;;;;;;;;;;5074263;28;20212;-64
2021/12/21 08:16:12;;;;;;;76.07;12.52;;;;;;;;;;5074253;28;20582;-64
2021/12/21 08:18:39;;;;;;;73.75;12.48;;;;;;;;;;5073920;28;20266;-64
2021/12/21 08:21:08;;;;;;;74.85;13.68;;;;;;;;;;5074014;28;20713;-64
2021/12/21 08:23:35;;;;;;;74.00;11.50;;;;;;;;;;5073894;28;20292;-63
2021/12/21 08:26:05;;;;;;;74.07;12.55;;;;;;;;;;5074004;28;20740;-64
2021/12/21 08:28:33;;;;;;;69.57;11.00;;;;;;;;;;5074075;28;20201;-63
2021/12/21 08:31:00;;;;;;;67.45;10.57;;;;;;;;;;5073966;28;20601;-64
2021/12/21 08:33:27;;;;;;;70.00;12.48;;;;;;;;;;5073909;28;20205;-65
2021/12/21 08:35:54;;;;;;;74.40;11.35;;;;;;;;;;5073410;28;20204;-64
2021/12/21 08:38:21;;;;;;;70.53;11.20;;;;;;;;;;5073575;28;20231;-65
2021/12/21 08:40:50;;;;;;;69.70;10.77;;;;;;;;;;5073743;28;20312;-65
2021/12/21 08:43:19;;;;;;;75.22;12.13;;;;;;;;;;5073802;28;20620;-65
2021/12/21 08:45:48;;;;;;;68.30;11.77;;;;;;;;;;5073653;28;20681;-64
2021/12/21 08:48:15;;;;;;;72.15;11.57;;;;;;;;;;5073227;28;20301;-65
2021/12/21 08:50:43;;;;;;;69.65;10.50;;;;;;;;;;5073715;28;20324;-64
2021/12/21 08:53:12;;;;;;;69.53;10.43;;;;;;;;;;5073758;28;20209;-65
2021/12/21 08:55:39;;;;;;;72.75;12.98;;;;;;;;;;5073568;28;20212;-65
2021/12/21 08:58:07;;;;;;;69.65;11.32;;;;;;;;;;5073105;28;20235;-65
2021/12/21 09:00:35;;;;;;;77.85;12.82;;;;;;;;;;5073339;28;20225;-64
2021/12/21 09:03:03;;;;;;;68.07;10.68;;;;;;;;;;5073222;28;20561;-65
2021/12/21 09:05:31;;;;;;;72.43;12.27;;;;;;;;;;5073324;28;20236;-65
2021/12/21 09:07:59;;;;;;;71.97;11.82;;;;;;;;;;5073149;28;20611;-65
2021/12/21 09:10:27;;;;;;;78.97;14.20;;;;;;;;;;5073061;28;20231;-66
2021/12/21 09:12:55;;;;;;;80.20;13.95;;;;;;;;;;5073217;28;20205;-65
2021/12/21 09:15:22;;;;;;;72.32;12.45;;;;;;;;;;5072402;28;20211;-65
2021/12/21 09:17:51;;;;;;;74.88;13.10;;;;;;;;;;5072537;28;20777;-64
2021/12/21 09:20:20;;;;;;;78.07;13.85;;;;;;;;;;5073027;28;20225;-65
2021/12/21 09:22:48;;;;;;;76.25;13.55;;;;;;;;;;5072749;28;20212;-65
2021/12/21 09:25:16;;;;;;;74.63;11.13;;;;;;;;;;5073097;28;20684;-65
2021/12/21 09:27:43;;;;;;;70.07;11.30;;;;;;;;;;5072137;28;20213;-65
2021/12/21 09:30:11;;;;;;;72.90;11.40;;;;;;;;;;5072486;28;20315;-65
2021/12/21 09:32:38;;;;;;;71.00;11.20;;;;;;;;;;5072937;28;20580;-65
2021/12/21 09:35:07;;;;;;;76.55;13.70;;;;;;;;;;5072989;28;20205;-66
2021/12/21 09:37:35;;;;;;;82.53;12.65;;;;;;;;;;5072378;28;20235;-65
2021/12/21 09:40:02;;;;;;;72.60;14.10;;;;;;;;;;5072632;28;20315;-65
2021/12/21 09:42:31;;;;;;;72.43;11.80;;;;;;;;;;5072405;28;20215;-66
2021/12/21 09:44:58;;;;;;;81.20;15.10;;;;;;;;;;5072648;28;20314;-65
2021/12/21 09:47:26;;;;;;;85.90;13.13;;;;;;;;;;5072128;28;20201;-64
2021/12/21 09:49:53;;;;;;;72.03;12.27;;;;;;;;;;5072443;28;20229;-64
2021/12/21 09:52:23;;;;;;;71.68;13.00;;;;;;;;;;5072320;28;20211;-66
2021/12/21 09:54:50;;;;;;;78.38;12.32;;;;;;;;;;5072123;28;20300;-66
2021/12/21 09:57:18;;;;;;;72.60;11.88;;;;;;;;;;5072071;28;20540;-64
2021/12/21 09:59:46;;;;;;;71.07;12.60;;;;;;;;;;5072112;28;20780;-65
2021/12/21 10:02:13;;;;;;;82.25;12.48;;;;;;;;;;5072270;28;20719;-65
2021/12/21 10:04:46;;;;;;;79.05;12.68;;;;;;;;;;5072135;28;20205;-66
2021/12/21 10:07:14;;;;;;;70.97;11.23;;;;;;;;;;5071868;28;20292;-65
2021/12/21 10:09:44;;;;;;;69.13;10.60;;;;;;;;;;5071818;28;20224;-66
2021/12/21 10:12:14;;;;;;;69.63;10.82;;;;;;;;;;5072330;28;20205;-64
2021/12/21 10:14:41;;;;;;;77.85;10.15;;;;;;;;;;5072097;28;20212;-66
2021/12/21 10:17:10;;;;;;;68.25;10.15;;;;;;;;;;5071619;28;20749;-67
2021/12/21 10:19:37;;;;;;;68.10;9.60;;;;;;;;;;5071923;28;20321;-66
2021/12/21 10:22:11;;;;;;;70.73;11.60;;;;;;;;;;5071876;28;20448;-66
2021/12/21 10:24:46;;;;;;;73.03;10.00;;;;;;;;;;5071979;28;20471;-67
2021/12/21 10:27:13;;;;;;;67.77;9.30;;;;;;;;;;5071727;28;20448;-66
2021/12/21 10:29:43;;;;;;;72.93;10.50;;;;;;;;;;5071810;28;20466;-66
2021/12/21 10:32:17;;;;;;;67.43;9.87;;;;;;;;;;5071447;28;20524;-66
2021/12/21 10:34:51;;;;;;;67.90;9.43;;;;;;;;;;5071679;28;20791;-66
2021/12/21 10:37:22;;;;;;;65.33;9.03;;;;;;;;;;5071605;28;20939;-66
2021/12/21 10:39:51;;;;;;;66.43;8.73;;;;;;;;;;5071780;28;20532;-67
2021/12/21 10:42:18;;;;;;;66.00;8.93;;;;;;;;;;5071751;28;20540;-66
2021/12/21 10:44:46;;;;;;;67.37;10.00;;;;;;;;;;5071398;28;20814;-66
2021/12/21 10:47:14;;;;;;;67.80;9.10;;;;;;;;;;5071426;28;20465;-66
2021/12/21 10:49:41;;;;;;;68.77;8.70;;;;;;;;;;5071695;28;20469;-65
2021/12/21 10:52:09;;;;;;;65.07;8.83;;;;;;;;;;5071537;28;20448;-66
2021/12/21 10:54:38;;;;;;;66.13;7.40;;;;;;;;;;5071520;28;20442;-65
2021/12/21 10:57:10;;;;;;;66.33;8.80;;;;;;;;;;5071526;28;20451;-65
2021/12/21 10:59:38;;;;;;;65.00;7.70;;;;;;;;;;5071432;28;20507;-65
2021/12/21 11:02:06;;;;;;;67.10;9.60;;;;;;;;;;5071739;28;20451;-65
2021/12/21 11:04:35;;;;;;;69.30;9.87;;;;;;;;;;5071569;28;20534;-66
2021/12/21 11:07:18;;;;;;;66.67;8.13;;;;;;;;;;5071479;28;20447;-65
2021/12/21 11:09:54;;;;;;;65.80;7.77;;;;;;;;;;5071214;28;20562;-65
2021/12/21 11:12:24;;;;;;;64.80;7.70;;;;;;;;;;5071639;28;20450;-65
2021/12/21 11:14:53;;;;;;;67.33;7.93;;;;;;;;;;5071176;28;20486;-62
2021/12/21 11:17:21;;;;;;;61.97;7.60;;;;;;;;;;5070028;28;20459;-62
2021/12/21 11:19:48;;;;;;;66.40;7.23;;;;;;;;;;5070594;28;20849;-62
2021/12/21 11:22:16;;;;;;;66.63;7.40;;;;;;;;;;5070388;28;20444;-64
2021/12/21 11:24:44;;;;;;;62.90;6.50;;;;;;;;;;5070148;28;20468;-64
2021/12/21 11:27:11;;;;;;;66.03;6.83;;;;;;;;;;5071142;28;20505;-65
2021/12/21 11:29:40;;;;;;;67.37;7.30;;;;;;;;;;5071013;28;20465;-65
2021/12/21 11:32:08;;;;;;;64.80;6.30;;;;;;;;;;5071422;28;20447;-64
2021/12/21 11:34:46;;;;;;;63.40;6.60;;;;;;;;;;5071123;28;20486;-64
2021/12/21 11:37:21;;;;;;;61.47;5.80;;;;;;;;;;5071088;28;20511;-65
2021/12/21 11:39:49;;;;;;;64.27;8.63;;;;;;;;;;5071407;28;20461;-66
2021/12/21 11:42:21;;;;;;;63.70;6.60;;;;;;;;;;5071161;28;20530;-64
2021/12/21 11:44:52;;;;;;;62.30;6.47;;;;;;;;;;5071950;28;20439;-64
2021/12/21 11:47:23;;;;;;;63.03;5.87;;;;;;;;;;5074403;28;20540;-65
2021/12/21 11:49:51;;;;;;;61.97;5.77;;;;;;;;;;5074801;28;20460;-64
2021/12/21 11:52:19;;;;;;;65.67;7.30;;;;;;;;;;5074747;28;20441;-64
2021/12/21 11:54:48;;;;;;;63.53;6.07;;;;;;;;;;5090205;28;20447;-63
2021/12/21 11:57:15;;;;;;;59.80;5.90;;;;;;;;;;5094408;28;20482;-63
2021/12/21 11:59:42;;;;;;;62.10;5.80;;;;;;;;;;5094304;28;20993;-64
2021/12/21 12:02:11;;;;;;;61.83;5.80;;;;;;;;;;5094383;28;21020;-65
2021/12/21 12:04:38;;;;;;;61.03;5.00;;;;;;;;;;5094376;28;20453;-68
2021/12/21 12:07:15;;;;;;;60.27;5.00;;;;;;;;;;5093609;28;20465;-65
2021/12/21 12:09:42;;;;;;;62.40;4.50;;;;;;;;;;5094463;28;20465;-64
2021/12/21 12:12:11;;;;;;;60.40;4.50;;;;;;;;;;5094387;28;20459;-64
2021/12/21 12:14:39;;;;;;;62.27;5.33;;;;;;;;;;5094154;28;20445;-65
2021/12/21 12:17:13;;;;;;;62.77;5.13;;;;;;;;;;5094290;28;20456;-64
2021/12/21 12:19:43;;;;;;;59.50;4.23;;;;;;;;;;5094102;28;20575;-64
2021/12/21 12:22:12;;;;;;;61.10;5.13;;;;;;;;;;5094096;28;20450;-64
2021/12/21 12:24:40;;;;;;;58.77;4.20;;;;;;;;;;5093919;28;20462;-64
2021/12/21 12:27:10;;;;;;;62.30;4.90;;;;;;;;;;5094047;28;20529;-67
2021/12/21 12:29:45;;;;;;;61.53;5.03;;;;;;;;;;5094554;28;20548;-64
2021/12/21 12:32:13;;;;;;;63.27;4.50;;;;;;;;;;5094204;28;20532;-66
2021/12/21 12:34:42;;;;;;;60.07;4.50;;;;;;;;;;5094028;28;20452;-65
2021/12/21 12:37:17;;;;;;;61.60;5.00;;;;;;;;;;5093835;28;20451;-64
2021/12/21 12:39:47;;;;;;;61.73;4.80;;;;;;;;;;5094241;28;20494;-64
2021/12/21 12:42:15;;;;;;;64.67;4.93;;;;;;;;;;5094004;28;20444;-64
2021/12/21 12:44:45;;;;;;;60.90;4.53;;;;;;;;;;5093938;28;20439;-64
2021/12/21 12:47:15;;;;;;;60.70;5.33;;;;;;;;;;5093655;28;20453;-64
2021/12/21 12:49:43;;;;;;;60.17;5.20;;;;;;;;;;5093555;28;20495;-64
2021/12/21 12:52:13;;;;;;;60.90;4.20;;;;;;;;;;5074325;28;20459;-64
2021/12/21 12:54:47;;;;;;;60.03;4.57;;;;;;;;;;5073539;28;20453;-65
2021/12/21 12:57:24;;;;;;;60.57;4.60;;;;;;;;;;5072808;28;20479;-65
2021/12/21 12:59:53;;;;;;;61.37;4.80;;;;;;;;;;5073330;28;20470;-65
2021/12/21 13:02:22;;;;;;;62.90;4.53;;;;;;;;;;5073248;28;20447;-65
2021/12/21 13:04:49;;;;;;;61.33;4.67;;;;;;;;;;5073052;28;20505;-66
2021/12/21 13:07:24;;;;;;;61.20;5.27;;;;;;;;;;5073091;28;20834;-64
2021/12/21 13:09:51;;;;;;;62.73;5.00;;;;;;;;;;5072971;28;21010;-65
2021/12/21 13:12:18;;;;;;;61.10;4.40;;;;;;;;;;5073968;28;20443;-65
2021/12/21 13:14:54;;;;;;;62.27;5.50;;;;;;;;;;5074486;28;20439;-66
2021/12/21 13:17:22;;;;;;;60.67;4.60;;;;;;;;;;5074989;28;20545;-65
2021/12/21 13:19:49;;;;;;;65.10;5.30;;;;;;;;;;5074894;28;20527;-66
2021/12/21 13:22:22;;;;;;;61.67;4.90;;;;;;;;;;5075231;28;20462;-65
2021/12/21 13:24:49;;;;;;;60.70;5.10;;;;;;;;;;5075041;28;20469;-64
2021/12/21 13:27:16;;;;;;;63.13;5.40;;;;;;;;;;5074496;28;20537;-65
2021/12/21 13:29:44;;;;;;;65.80;6.23;;;;;;;;;;5074900;28;20493;-66
2021/12/21 13:32:14;;;;;;;60.93;5.20;;;;;;;;;;5074861;28;20846;-65
2021/12/21 13:34:45;;;;;;;60.57;5.10;;;;;;;;;;5074937;28;20439;-64
2021/12/21 13:37:13;;;;;;;63.63;5.80;;;;;;;;;;5074366;28;20504;-65
2021/12/21 13:39:43;;;;;;;61.27;5.17;;;;;;;;;;5072614;28;20502;-65
2021/12/21 13:42:11;;;;;;;63.20;5.20;;;;;;;;;;5072568;28;20450;-64
2021/12/21 13:44:40;;;;;;;60.37;5.20;;;;;;;;;;5072688;28;20446;-67
2021/12/21 13:47:17;;;;;;;60.40;4.93;;;;;;;;;;5072206;28;20988;-67
2021/12/21 13:49:59;;;;;;;61.67;5.37;;;;;;;;;;5072329;28;20513;-64
2021/12/21 13:52:27;;;;;;;62.00;5.20;;;;;;;;;;5072160;28;20443;-63
2021/12/21 13:54:54;;;;;;;60.10;4.60;;;;;;;;;;5072125;28;20451;-65
2021/12/21 13:57:22;;;;;;;63.07;5.60;;;;;;;;;;5071957;28;20452;-64
2021/12/21 13:59:50;;;;;;;61.90;5.67;;;;;;;;;;5072151;28;20461;-64
2021/12/21 14:02:26;;;;;;;61.47;7.03;;;;;;;;;;5072315;28;20446;-65
2021/12/21 14:05:00;;;;;;;60.30;5.40;;;;;;;;;;5071912;28;20962;-65
2021/12/21 14:07:29;;;;;;;61.20;5.30;;;;;;;;;;5071344;28;20536;-64
2021/12/21 14:10:11;;;;;;;62.10;4.70;;;;;;;;;;5072033;28;20571;-64
2021/12/21 14:12:38;;;;;;;61.67;5.60;;;;;;;;;;5072169;28;20453;-64
2021/12/21 14:15:06;;;;;;;60.20;4.93;;;;;;;;;;5071983;28;20439;-65
2021/12/21 14:17:33;;;;;;;59.77;4.73;;;;;;;;;;5071544;28;20446;-65
2021/12/21 14:20:01;;;;;;;62.03;4.80;;;;;;;;;;5072179;28;20566;-63
2021/12/21 14:22:30;;;;;;;65.40;5.50;;;;;;;;;;5072073;28;20447;-64
2021/12/21 14:24:57;;;;;;;59.70;4.83;;;;;;;;;;5071669;28;20550;-65
2021/12/21 14:27:27;;;;;;;64.77;5.33;;;;;;;;;;5071750;28;20454;-63
2021/12/21 14:30:09;;;;;;;62.60;5.30;;;;;;;;;;5071552;28;20493;-64
2021/12/21 14:35:17;;;;;;;63.40;5.90;;;;;;;;;;5062754;28;20470;-64
2021/12/21 14:37:46;;;;;;;60.87;5.00;;;;;;;;;;5071538;28;20893;-64
2021/12/21 14:40:13;;;;;;;60.53;5.13;;;;;;;;;;5071492;28;20971;-64
2021/12/21 14:42:40;;;;;;;62.80;6.07;;;;;;;;;;5071876;28;20443;-63
2021/12/21 14:45:11;;;;;;;61.73;4.93;;;;;;;;;;5071531;28;20435;-63
2021/12/21 14:47:39;;;;;;;62.67;4.87;;;;;;;;;;5071269;28;20443;-65
2021/12/21 14:50:09;;;;;;;61.17;5.47;;;;;;;;;;5077982;28;20482;-65
2021/12/21 14:52:40;;;;;;;61.67;4.80;;;;;;;;;;5091753;28;20450;-64
2021/12/21 14:55:09;;;;;;;59.50;4.57;;;;;;;;;;5091753;28;20450;-64
2021/12/21 14:57:38;;;;;;;61.20;4.90;;;;;;;;;;5091515;28;20478;-64
2021/12/21 15:00:08;;;;;;;63.77;4.40;;;;;;;;;;5091549;28;20462;-64
2021/12/21 15:02:51;;;;;;;61.60;4.40;;;;;;;;;;5091788;28;20532;-64
2021/12/21 15:05:20;;;;;;;62.47;4.73;;;;;;;;;;5091667;28;20537;-63
2021/12/21 15:07:47;;;;;;;60.37;4.87;;;;;;;;;;5091562;28;20446;-63
2021/12/21 15:10:16;;;;;;;60.27;4.80;;;;;;;;;;5091939;28;20493;-65